KGTF

Great Falls International Airport

Great Falls, Montana, USA
METAR KGTF 190553Z 22011KT 10SM CLR M01/M05 A3007 RMK AO2 SLP237 T10061050 11006 21078 53002
Observed Flight Rules
Jan-19 @ 05:53 UTC (45 minutes ago) Visual Flight Rules
Wind Visibility Clouds
220° at 11 knots 10 miles
  • Clear skies
Temperatures Readings
Current -1°C / 30°F
Dewpoint -5°C / 23°F
Humidity 75%
Altimeter 30.07" Hg
Pressure 1023.7 hPa
Elevation 1119
METAR KGTF 190553Z 22011KT 10SM CLR M01/M05 A3007 RMK AO2 SLP237 T10061050 11006 21078 53002
Observed Flight Rules
Jan-19 @ 05:53 UTC
(45 minutes ago)
VFR
Wind Visibility
220° at 11 knots 10 miles
Clouds
  • Clear skies
Temperature Dewpoint
-1°C / 30°F -5°C / 23°F
Humidity Altimeter Pressure
75% 30.07" Hg 1023.7 hPa